Boggsville, Illinois
Current Conditions -  °F | °C
As of 12:15 PM on Thursday 29 Jan 2015 (Local Time) from K1H2 Reporting Station
Overcast Overcast  
Wind Chill: 30°   Ceiling: 2100
Heat Index: 38°   Visibility: 10mi
Dew Point: 30°   Wind: 15mph
Humidity: 71%   Direction: 260°W
Pressure: 30.08"   Gusts: 21mph
Location:  39.1183°N, 88.6059°W
Report Text: K1H2 291815Z AUTO 26013G18KT 10SM OVC021 04/M01 A3008 RMK AO2 T00351013
Loading
Personal Weather Stations






























Interactive Weather Map New forecast layout! Learn more

10-Day Weather Forecast

Advertisements
Track Severe Weather on mobile